createdAt,value
2019-01-28T00:01:37.235Z,80.99
2019-01-28T00:04:26.335Z,79.73
2019-01-28T00:07:14.762Z,79.45
2019-01-28T00:10:02.941Z,79.49
2019-01-28T00:13:11.256Z,79.73
2019-01-28T00:15:59.957Z,80.08
2019-01-28T00:18:48.913Z,79.57
2019-01-28T00:21:38.577Z,79.80
2019-01-28T00:24:27.895Z,79.49
2019-01-28T00:27:17.372Z,77.93
2019-01-28T00:30:07.229Z,77.76
2019-01-28T00:32:55.864Z,77.73
2019-01-28T00:35:44.344Z,78.41
2019-01-28T00:38:33.341Z,78.05
2019-01-28T00:41:23.052Z,78.49
2019-01-28T00:44:11.813Z,78.49
2019-01-28T00:47:01.115Z,81.07
2019-01-28T00:49:49.934Z,81.07
2019-01-28T00:52:39.428Z,80.93
2019-01-28T00:55:28.271Z,81.15
2019-01-28T00:58:17.254Z,81.90
2019-01-28T01:01:05.884Z,82.46
2019-01-28T01:03:54.812Z,80.96
2019-01-28T01:06:43.428Z,81.41
2019-01-28T01:09:35.786Z,81.19
2019-01-28T01:12:25.121Z,80.98
2019-01-28T01:15:15.490Z,80.03
2019-01-28T01:18:04.302Z,80.14
2019-01-28T01:20:53.257Z,80.02
2019-01-28T01:23:41.701Z,79.88
2019-01-28T01:26:30.491Z,80.17
2019-01-28T01:29:19.171Z,80.01
2019-01-28T01:32:08.282Z,80.35
2019-01-28T01:34:57.226Z,79.99
2019-01-28T01:37:48.492Z,80.00
2019-01-28T01:40:38.248Z,80.19
2019-01-28T01:43:26.807Z,79.48
2019-01-28T01:46:15.733Z,79.43
2019-01-28T01:49:04.645Z,79.34
2019-01-28T01:51:53.108Z,79.47
2019-01-28T01:54:41.450Z,80.08
2019-01-28T01:57:48.422Z,80.85
2019-01-28T02:00:24.158Z,81.90
2019-01-28T02:03:12.888Z,82.89
2019-01-28T02:06:02.407Z,83.58
2019-01-28T02:08:50.531Z,84.24
2019-01-28T02:11:42.367Z,84.70
2019-01-28T02:14:30.954Z,84.66
2019-01-28T02:17:19.579Z,84.33
2019-01-28T02:20:09.320Z,83.97
2019-01-28T02:22:58.040Z,83.28
2019-01-28T02:25:47.409Z,83.02
2019-01-28T02:28:36.477Z,82.53
2019-01-28T02:31:25.334Z,81.69
2019-01-28T02:34:14.001Z,81.49
2019-01-28T02:37:03.346Z,81.24
2019-01-28T02:39:52.328Z,81.45
2019-01-28T02:42:41.661Z,81.37
2019-01-28T02:45:30.848Z,80.92
2019-01-28T02:48:20.595Z,81.20
2019-01-28T02:51:09.659Z,80.81
2019-01-28T02:53:58.493Z,80.86
2019-01-28T02:56:47.436Z,81.00
2019-01-28T02:59:36.078Z,80.35
2019-01-28T03:02:25.641Z,80.20
2019-01-28T03:05:14.683Z,80.18
2019-01-28T03:08:03.565Z,79.75
2019-01-28T03:10:52.247Z,80.21
2019-01-28T03:13:40.958Z,80.25
2019-01-28T03:16:29.198Z,79.77
2019-01-28T03:19:19.964Z,79.55
2019-01-28T03:22:08.770Z,79.49
2019-01-28T03:24:57.678Z,79.45
2019-01-28T03:27:47.026Z,79.85
2019-01-28T03:30:35.435Z,79.72
2019-01-28T03:33:23.414Z,79.57
2019-01-28T03:36:12.566Z,79.10
2019-01-28T03:39:01.348Z,79.45
2019-01-28T03:41:50.430Z,79.66
2019-01-28T03:44:39.998Z,79.91
2019-01-28T03:47:28.732Z,80.12
2019-01-28T03:50:18.448Z,80.58
2019-01-28T03:53:12.730Z,80.12
2019-01-28T03:56:02.138Z,79.91
2019-01-28T03:58:51.393Z,80.20
2019-01-28T04:01:40.262Z,80.37
2019-01-28T04:04:28.393Z,79.73
2019-01-28T04:07:17.976Z,79.92
2019-01-28T04:10:10.185Z,80.02
2019-01-28T04:12:59.055Z,78.75
2019-01-28T04:15:48.662Z,78.04
2019-01-28T04:18:37.662Z,77.47
2019-01-28T04:21:26.859Z,77.41
2019-01-28T04:24:15.597Z,77.38
2019-01-28T04:27:04.312Z,76.45
2019-01-28T04:29:53.949Z,76.44
2019-01-28T04:32:43.200Z,76.26
2019-01-28T04:35:32.067Z,76.07
2019-01-28T04:38:21.743Z,76.07
2019-01-28T04:41:10.612Z,75.97
2019-01-28T04:43:59.630Z,75.68
2019-01-28T04:46:50.011Z,75.64
2019-01-28T04:49:39.162Z,75.27
2019-01-28T04:52:28.006Z,75.53
2019-01-28T04:55:17.665Z,75.44
2019-01-28T04:58:06.691Z,75.25
2019-01-28T05:00:56.651Z,75.54
2019-01-28T05:03:46.334Z,75.23
2019-01-28T05:06:36.996Z,74.70
2019-01-28T05:09:26.028Z,74.62
2019-01-28T05:12:15.168Z,74.05
2019-01-28T05:15:05.556Z,73.83
2019-01-28T05:17:55.711Z,73.66
2019-01-28T05:20:44.353Z,73.36
2019-01-28T05:23:33.765Z,72.50
2019-01-28T05:26:22.552Z,72.05
2019-01-28T05:29:12.077Z,72.20
2019-01-28T05:32:01.370Z,71.94
2019-01-28T05:34:50.319Z,72.33
2019-01-28T05:37:39.202Z,72.01
2019-01-28T05:40:28.850Z,71.96
2019-01-28T05:43:18.050Z,71.83
2019-01-28T05:46:07.099Z,71.80
2019-01-28T05:48:56.988Z,72.12
2019-01-28T05:51:46.144Z,71.65
2019-01-28T05:54:35.006Z,71.63
2019-01-28T05:57:23.782Z,71.62
2019-01-28T06:00:19.407Z,71.57
2019-01-28T06:03:08.743Z,71.37
2019-01-28T06:05:58.171Z,71.55
2019-01-28T06:08:48.215Z,70.96
2019-01-28T06:11:36.785Z,70.52
2019-01-28T06:14:27.607Z,70.29
2019-01-28T06:17:16.450Z,70.28
2019-01-28T06:20:06.258Z,70.65
2019-01-28T06:22:55.173Z,70.34
2019-01-28T06:25:43.594Z,69.76
2019-01-28T06:28:32.440Z,70.02
2019-01-28T06:31:21.913Z,70.46
2019-01-28T06:34:10.930Z,70.64
2019-01-28T06:36:59.639Z,70.70
2019-01-28T06:39:47.808Z,70.71
2019-01-28T06:42:36.793Z,70.64
2019-01-28T06:45:25.845Z,71.02
2019-01-28T06:48:18.782Z,71.00
2019-01-28T06:51:07.824Z,70.76
2019-01-28T06:53:57.080Z,71.10
2019-01-28T06:56:45.486Z,70.71
2019-01-28T06:59:34.315Z,70.70
2019-01-28T07:02:23.202Z,71.58
2019-01-28T07:05:11.643Z,71.48
2019-01-28T07:08:00.435Z,71.13
2019-01-28T07:10:49.110Z,71.68
2019-01-28T07:13:37.907Z,71.51
2019-01-28T07:16:29.967Z,71.05
2019-01-28T07:19:18.974Z,71.60
2019-01-28T07:22:08.550Z,71.06
2019-01-28T07:24:57.224Z,71.89
2019-01-28T07:27:45.751Z,72.14
2019-01-28T07:30:36.108Z,72.08
2019-01-28T07:33:25.729Z,71.78
2019-01-28T07:36:15.335Z,72.61
2019-01-28T07:39:05.799Z,71.56
2019-01-28T07:41:54.800Z,71.23
2019-01-28T07:44:43.386Z,71.64
2019-01-28T07:47:37.515Z,71.58
2019-01-28T07:50:26.396Z,71.02
2019-01-28T07:53:14.801Z,70.86
2019-01-28T07:56:03.433Z,70.87
2019-01-28T07:58:51.877Z,71.35
2019-01-28T08:01:44.148Z,70.77
2019-01-28T08:04:32.053Z,70.90
2019-01-28T08:07:20.021Z,71.01
2019-01-28T08:10:09.785Z,70.28
2019-01-28T08:13:02.031Z,70.16
2019-01-28T08:15:51.455Z,70.54
2019-01-28T08:18:41.212Z,69.94
2019-01-28T08:21:29.741Z,70.39
2019-01-28T08:24:18.367Z,70.88
2019-01-28T08:27:08.502Z,70.50
2019-01-28T08:29:57.247Z,70.42
2019-01-28T08:32:45.482Z,70.26
2019-01-28T08:35:35.867Z,70.61
2019-01-28T08:38:24.884Z,70.36
2019-01-28T08:41:13.735Z,70.28
2019-01-28T08:44:02.084Z,70.49
2019-01-28T08:46:50.472Z,70.29
2019-01-28T08:49:38.720Z,70.23
2019-01-28T08:52:28.328Z,69.63
2019-01-28T08:55:19.436Z,70.32
2019-01-28T08:58:08.297Z,69.48
2019-01-28T09:00:57.214Z,69.81
2019-01-28T09:03:45.940Z,69.41
2019-01-28T09:06:34.706Z,69.34
2019-01-28T09:09:23.677Z,68.90
2019-01-28T09:12:12.402Z,68.83
2019-01-28T09:15:02.795Z,67.96
2019-01-28T09:17:51.011Z,68.20
2019-01-28T09:20:40.857Z,67.51
2019-01-28T09:23:29.791Z,67.98
2019-01-28T09:26:18.633Z,66.87
2019-01-28T09:29:07.318Z,66.87
2019-01-28T09:31:56.219Z,66.46
2019-01-28T09:34:45.039Z,66.90
2019-01-28T09:37:33.288Z,65.81
2019-01-28T09:40:23.405Z,65.81
2019-01-28T09:43:12.008Z,65.40
2019-01-28T09:46:00.023Z,64.87
2019-01-28T09:48:49.038Z,63.47
2019-01-28T09:51:37.911Z,62.93
2019-01-28T09:54:27.764Z,63.59
2019-01-28T09:57:16.672Z,63.76
2019-01-28T10:00:08.503Z,63.41
2019-01-28T10:02:57.239Z,63.41
2019-01-28T10:05:45.959Z,63.81
2019-01-28T10:08:34.394Z,63.82
2019-01-28T10:11:22.694Z,64.37
2019-01-28T10:14:11.309Z,63.09
2019-01-28T10:17:00.141Z,64.26
2019-01-28T10:19:49.416Z,64.00
2019-01-28T10:22:38.221Z,63.94
2019-01-28T10:25:27.694Z,64.72
2019-01-28T10:28:16.837Z,64.00
2019-01-28T10:31:06.907Z,64.00
2019-01-28T10:33:55.573Z,64.38
2019-01-28T10:36:44.499Z,64.82
2019-01-28T10:39:33.841Z,64.02
2019-01-28T10:42:22.424Z,64.04
2019-01-28T10:45:11.612Z,63.15
2019-01-28T10:48:00.866Z,61.94
2019-01-28T10:50:49.168Z,62.14
2019-01-28T10:53:37.538Z,62.14
2019-01-28T10:56:26.771Z,60.85
2019-01-28T10:59:15.247Z,60.74
2019-01-28T11:02:03.643Z,60.13
2019-01-28T11:04:52.221Z,58.96
2019-01-28T11:07:40.780Z,58.66
2019-01-28T11:10:29.336Z,58.88
2019-01-28T11:13:17.976Z,57.99
2019-01-28T11:16:06.255Z,58.92
2019-01-28T11:18:57.835Z,58.56
2019-01-28T11:21:44.939Z,57.94
2019-01-28T11:24:34.263Z,57.92
2019-01-28T11:27:22.617Z,58.31
2019-01-28T11:30:21.223Z,59.02
2019-01-28T11:33:10.467Z,58.72
2019-01-28T11:36:05.156Z,58.47
2019-01-28T11:38:48.768Z,57.75
2019-01-28T11:41:37.298Z,58.17
2019-01-28T11:44:25.885Z,57.74
2019-01-28T11:47:15.502Z,57.02
2019-01-28T11:50:05.524Z,57.55
2019-01-28T11:52:54.188Z,57.91
2019-01-28T11:55:43.686Z,57.56
2019-01-28T11:58:33.063Z,56.86
2019-01-28T12:01:29.008Z,56.01
2019-01-28T12:04:19.059Z,56.79
2019-01-28T12:07:08.423Z,55.56
2019-01-28T12:09:57.423Z,54.73
2019-01-28T12:12:47.144Z,55.44
2019-01-28T12:15:36.341Z,55.44
2019-01-28T12:18:25.481Z,55.77
2019-01-28T12:21:14.045Z,57.13
2019-01-28T12:24:02.711Z,56.81
2019-01-28T12:26:52.228Z,57.10
2019-01-28T12:29:40.879Z,56.67
2019-01-28T12:32:28.919Z,55.41
2019-01-28T12:35:18.222Z,55.14
2019-01-28T12:38:07.377Z,54.23
2019-01-28T12:40:56.354Z,53.42
2019-01-28T12:43:44.916Z,53.33
2019-01-28T12:46:36.359Z,51.50
2019-01-28T12:49:25.611Z,51.92
2019-01-28T12:52:15.384Z,51.19
2019-01-28T12:55:05.454Z,50.94
2019-01-28T12:57:53.938Z,51.61
2019-01-28T13:00:46.314Z,51.81
2019-01-28T13:03:37.317Z,50.74
2019-01-28T13:06:26.037Z,50.72
2019-01-28T13:09:15.461Z,50.65
2019-01-28T13:12:04.754Z,51.04
2019-01-28T13:14:54.240Z,50.46
2019-01-28T13:17:42.760Z,51.63
2019-01-28T13:20:31.443Z,51.23
2019-01-28T13:23:19.969Z,51.68
2019-01-28T13:26:07.939Z,51.52
2019-01-28T13:28:56.114Z,50.80
2019-01-28T13:32:03.748Z,49.42
2019-01-28T13:34:52.629Z,49.54
2019-01-28T13:37:41.303Z,50.04
2019-01-28T13:40:29.718Z,48.76
2019-01-28T13:43:19.031Z,50.05
2019-01-28T13:46:07.879Z,50.36
2019-01-28T13:48:56.964Z,50.22
2019-01-28T13:51:45.690Z,51.34
2019-01-28T13:54:34.036Z,51.75
2019-01-28T13:57:22.736Z,51.54
2019-01-28T14:00:18.899Z,52.45
2019-01-28T14:03:07.671Z,53.11
2019-01-28T14:05:56.954Z,52.35
2019-01-28T14:08:45.764Z,52.70
2019-01-28T14:11:34.235Z,52.44
2019-01-28T14:14:22.669Z,52.50
2019-01-28T14:17:11.227Z,53.77
2019-01-28T14:20:00.511Z,52.99
2019-01-28T14:22:49.897Z,53.36
2019-01-28T14:25:40.914Z,53.38
2019-01-28T14:28:31.212Z,53.38
2019-01-28T14:31:20.007Z,53.79
2019-01-28T14:34:08.389Z,53.83
2019-01-28T14:36:56.551Z,53.71
2019-01-28T14:39:45.217Z,53.88
2019-01-28T14:42:33.732Z,53.88
2019-01-28T14:45:22.792Z,54.21
2019-01-28T14:48:12.583Z,54.22
2019-01-28T14:51:00.751Z,54.22
2019-01-28T14:54:00.298Z,54.39
2019-01-28T14:56:55.090Z,55.00
2019-01-28T14:59:43.990Z,54.96
2019-01-28T15:02:32.909Z,55.22
2019-01-28T15:05:21.757Z,55.86
2019-01-28T15:08:11.211Z,56.57
2019-01-28T15:11:00.007Z,56.82
2019-01-28T15:13:49.222Z,57.83
2019-01-28T15:16:37.504Z,58.34
2019-01-28T15:19:31.222Z,58.34
2019-01-28T15:22:20.675Z,58.73
2019-01-28T15:25:11.594Z,58.69
2019-01-28T15:28:19.529Z,58.89
2019-01-28T15:31:08.073Z,60.01
2019-01-28T15:33:56.558Z,60.24
2019-01-28T15:36:45.724Z,60.24
2019-01-28T15:39:33.419Z,60.71
2019-01-28T15:42:22.635Z,60.75
2019-01-28T15:45:26.230Z,61.02
2019-01-28T15:48:16.266Z,61.12
2019-01-28T15:51:04.518Z,61.48
2019-01-28T15:53:55.421Z,61.61
2019-01-28T15:56:44.456Z,62.47
2019-01-28T15:59:33.121Z,62.07
2019-01-28T16:02:21.547Z,62.34
2019-01-28T16:05:11.840Z,62.54
2019-01-28T16:08:03.082Z,63.27
2019-01-28T16:10:55.037Z,63.75
2019-01-28T16:13:44.041Z,64.29
2019-01-28T16:16:32.737Z,64.83
2019-01-28T16:20:01.089Z,64.71
2019-01-28T16:23:13.190Z,65.06
2019-01-28T16:26:04.173Z,65.36
2019-01-28T16:28:53.095Z,65.26
2019-01-28T16:31:48.626Z,64.76
2019-01-28T16:34:35.908Z,65.18
2019-01-28T16:37:30.993Z,65.57
2019-01-28T16:40:20.630Z,65.63
2019-01-28T16:43:10.892Z,66.15
2019-01-28T16:45:58.784Z,66.10
2019-01-28T16:48:48.262Z,67.10
2019-01-28T16:51:36.921Z,67.34
2019-01-28T16:54:25.689Z,67.59
2019-01-28T16:57:13.845Z,68.30
2019-01-28T17:00:04.046Z,69.50
2019-01-28T17:02:53.153Z,69.99
2019-01-28T17:05:43.299Z,70.88
2019-01-28T17:08:32.549Z,71.55
2019-01-28T17:11:22.067Z,72.69
2019-01-28T17:14:13.447Z,73.40
2019-01-28T17:17:02.757Z,74.01
2019-01-28T17:19:52.352Z,75.23
2019-01-28T17:22:41.312Z,75.81
2019-01-28T17:25:35.642Z,76.38
2019-01-28T17:28:25.608Z,76.32
2019-01-28T17:31:15.227Z,76.57
2019-01-28T17:34:04.378Z,77.02
2019-01-28T17:36:52.732Z,75.89
2019-01-28T17:39:41.386Z,76.46
2019-01-28T17:42:29.562Z,76.40
2019-01-28T17:45:19.638Z,76.65
2019-01-28T17:48:08.506Z,76.33
2019-01-28T17:50:57.199Z,77.00
2019-01-28T17:53:45.583Z,77.35
2019-01-28T17:56:34.474Z,77.92
2019-01-28T17:59:23.369Z,78.55
2019-01-28T18:02:11.806Z,78.83
2019-01-28T18:05:00.628Z,79.74
2019-01-28T18:11:22.819Z,80.84
2019-01-28T18:14:11.757Z,81.04
2019-01-28T18:17:00.883Z,81.28
2019-01-28T18:20:09.981Z,81.00
2019-01-28T18:23:01.948Z,81.44
2019-01-28T18:25:55.738Z,81.89
2019-01-28T18:28:45.532Z,82.31
2019-01-28T18:31:34.458Z,81.94
2019-01-28T18:34:23.200Z,82.26
2019-01-28T18:37:11.532Z,81.81
2019-01-28T18:40:18.860Z,81.42
2019-01-28T18:43:09.118Z,80.89
2019-01-28T18:45:57.876Z,80.96
2019-01-28T18:49:06.244Z,80.50
2019-01-28T18:51:55.731Z,80.40
2019-01-28T18:54:44.400Z,79.65
2019-01-28T18:57:32.680Z,79.89
2019-01-28T19:00:22.569Z,79.31
2019-01-28T19:03:14.284Z,78.98
2019-01-28T19:06:11.900Z,78.80
2019-01-28T19:09:06.395Z,78.98
2019-01-28T19:12:17.048Z,78.57
2019-01-28T19:15:16.313Z,78.21
2019-01-28T19:18:27.821Z,78.59
2019-01-28T19:21:35.772Z,78.55
2019-01-28T19:24:24.827Z,78.40
2019-01-28T19:27:14.151Z,79.03
2019-01-28T19:30:03.095Z,79.05
2019-01-28T19:32:51.711Z,79.38
2019-01-28T19:35:40.811Z,79.54
2019-01-28T19:38:30.428Z,79.81
2019-01-28T19:41:18.796Z,79.90
2019-01-28T19:44:07.618Z,80.09
2019-01-28T19:46:56.786Z,80.66
2019-01-28T19:49:46.118Z,80.11
2019-01-28T19:52:39.050Z,79.66
2019-01-28T19:55:27.340Z,79.46
2019-01-28T19:58:19.143Z,79.23
2019-01-28T20:01:08.395Z,78.55
2019-01-28T20:03:56.983Z,78.04
2019-01-28T20:06:46.112Z,78.15
2019-01-28T20:09:34.407Z,77.81
2019-01-28T20:12:22.734Z,77.63
2019-01-28T20:15:12.824Z,77.52
2019-01-28T20:18:04.329Z,77.30
2019-01-28T20:20:53.581Z,76.84
2019-01-28T20:23:42.124Z,76.76
2019-01-28T20:26:33.127Z,77.07
2019-01-28T20:29:21.977Z,76.88
2019-01-28T20:32:11.114Z,76.46
2019-01-28T20:34:59.937Z,76.69
2019-01-28T20:37:50.779Z,76.73
2019-01-28T20:40:39.239Z,76.95
2019-01-28T20:43:27.668Z,76.89
2019-01-28T20:46:16.379Z,76.64
2019-01-28T20:49:08.323Z,77.00
2019-01-28T20:51:57.051Z,77.02
2019-01-28T20:54:46.075Z,76.76
2019-01-28T20:57:34.932Z,76.80
2019-01-28T21:03:54.279Z,76.71
2019-01-28T21:06:42.883Z,76.51
2019-01-28T21:09:31.719Z,76.65
2019-01-28T21:12:20.651Z,76.56
2019-01-28T21:15:10.920Z,76.81
2019-01-28T21:17:59.411Z,76.66
2019-01-28T21:20:48.090Z,77.17
2019-01-28T21:23:37.171Z,76.67
2019-01-28T21:26:25.579Z,76.73
2019-01-28T21:29:14.151Z,76.57
2019-01-28T21:32:03.506Z,76.45
2019-01-28T21:34:53.493Z,76.53
2019-01-28T21:37:50.251Z,76.54
2019-01-28T21:40:39.763Z,76.33
2019-01-28T21:43:28.570Z,76.29
2019-01-28T21:46:17.303Z,76.00
2019-01-28T21:49:05.579Z,76.08
2019-01-28T21:51:54.789Z,76.17
2019-01-28T21:54:43.652Z,76.36
2019-01-28T21:57:31.974Z,76.54
2019-01-28T22:00:39.588Z,77.07
2019-01-28T22:03:27.769Z,77.31
2019-01-28T22:06:16.533Z,77.75
2019-01-28T22:09:07.827Z,77.51
2019-01-28T22:11:56.157Z,78.24
2019-01-28T22:14:45.944Z,79.63
2019-01-28T22:17:34.487Z,80.63
2019-01-28T22:20:23.152Z,81.90
2019-01-28T22:23:31.110Z,81.93
2019-01-28T22:26:20.395Z,83.00
2019-01-28T22:29:08.876Z,84.07
2019-01-28T22:31:57.484Z,84.80
2019-01-28T22:34:47.889Z,85.65
2019-01-28T22:37:37.819Z,86.04
2019-01-28T22:40:27.226Z,86.76
2019-01-28T22:43:16.798Z,87.21
2019-01-28T22:46:05.425Z,88.28
2019-01-28T22:48:54.823Z,89.33
2019-01-28T22:51:44.356Z,89.92
2019-01-28T22:54:33.705Z,90.02
2019-01-28T22:57:23.192Z,90.31
2019-01-28T23:00:49.255Z,90.87
2019-01-28T23:03:37.707Z,90.91
2019-01-28T23:06:26.093Z,91.12
2019-01-28T23:09:15.192Z,90.91
2019-01-28T23:12:03.787Z,91.08
2019-01-28T23:14:54.807Z,90.97
2019-01-28T23:17:45.724Z,90.64
2019-01-28T23:20:34.518Z,90.69
2019-01-28T23:23:23.790Z,90.88
2019-01-28T23:26:12.395Z,90.85
2019-01-28T23:29:00.490Z,90.98
2019-01-28T23:31:50.672Z,90.76
2019-01-28T23:34:39.402Z,90.77
2019-01-28T23:37:28.206Z,90.91
2019-01-28T23:40:16.934Z,90.70
2019-01-28T23:43:06.552Z,90.67
2019-01-28T23:45:55.146Z,90.30
2019-01-28T23:48:44.115Z,90.10
2019-01-28T23:51:32.779Z,90.51
2019-01-28T23:54:21.676Z,90.33
2019-01-28T23:57:11.503Z,90.58
2019-01-28T23:59:59.863Z,89.75
